Time;durP1;ratioP1;P1;durP2;ratioP2;P2;SDS_P1;SDS_P2;PMS_P1;PMS_P2;Temp;Humidity;BMP_temperature;BMP_pressure;BME280_temperature;BME280_humidity;BME280_pressure;Samples;Min_cycle;Max_cycle;Signal;HPM_P1;HPM_P2
2022/06/01 00:00:55;;;;;;;6.15;5.00;;;;;;;14.79;61.84;100193.09;1729727;82;25464;-65
2022/06/01 00:03:23;;;;;;;6.78;4.55;;;;;;;14.81;61.90;100201.13;1742808;81;25682;-65
2022/06/01 00:05:53;;;;;;;7.05;5.42;;;;;;;14.84;61.92;100193.66;1760204;81;25651;-63
2022/06/01 00:08:22;;;;;;;5.10;4.60;;;;;;;14.87;61.87;100182.09;1759851;81;27513;-63
2022/06/01 00:10:50;;;;;;;6.12;5.05;;;;;;;14.89;61.89;100170.86;1760313;81;25650;-63
2022/06/01 00:13:19;;;;;;;5.08;4.53;;;;;;;14.94;61.85;100173.34;1760091;81;25703;-63
2022/06/01 00:15:46;;;;;;;5.28;4.78;;;;;;;14.97;61.96;100178.70;1760081;81;26171;-64
2022/06/01 00:18:12;;;;;;;15.50;14.25;;;;;;;14.99;61.82;100173.12;1760268;81;25635;-63
2022/06/01 00:20:40;;;;;;;4.10;3.80;;;;;;;15.02;61.79;100162.13;1760308;81;27589;-63
2022/06/01 00:23:07;;;;;;;4.60;4.12;;;;;;;15.05;61.87;100140.98;1759786;81;25408;-63
2022/06/01 00:25:34;;;;;;;5.62;4.42;;;;;;;15.08;61.91;100147.91;1760279;81;25456;-63
2022/06/01 00:28:00;;;;;;;4.72;4.30;;;;;;;15.09;61.88;100147.36;1760389;81;25530;-63
2022/06/01 00:30:27;;;;;;;4.20;3.80;;;;;;;15.07;61.87;100142.25;1760605;81;25386;-64
2022/06/01 00:32:53;;;;;;;4.30;3.90;;;;;;;15.05;62.16;100140.98;1760393;81;28396;-64
2022/06/01 00:35:22;;;;;;;4.92;4.42;;;;;;;15.01;62.25;100159.16;1760497;81;25577;-64
2022/06/01 00:37:49;;;;;;;6.72;4.78;;;;;;;14.99;62.58;100179.14;1760622;81;25621;-64
2022/06/01 00:40:19;;;;;;;5.20;4.50;;;;;;;14.97;62.72;100180.84;1760365;81;25674;-64
2022/06/01 00:42:48;;;;;;;8.28;5.35;;;;;;;14.92;63.07;100165.52;1760503;81;25696;-64
2022/06/01 00:45:20;;;;;;;5.78;5.22;;;;;;;14.89;63.14;100159.39;1760471;81;28097;-64
2022/06/01 00:47:47;;;;;;;7.75;4.75;;;;;;;14.86;63.64;100142.36;1760252;81;25400;-64
2022/06/01 00:50:33;;;;;;;6.53;5.30;;;;;;;14.85;64.02;100126.39;1759928;81;25558;-64
2022/06/01 00:53:05;;;;;;;10.55;5.60;;;;;;;14.80;64.68;100111.08;1760358;80;25688;-63
2022/06/01 00:55:39;;;;;;;6.45;5.03;;;;;;;14.75;66.13;100090.31;1758190;81;25562;-63
2022/06/01 00:58:14;;;;;;;7.42;4.87;;;;;;;14.69;66.54;100096.33;1755793;81;28247;-66
2022/06/01 01:00:42;;;;;;;6.33;4.87;;;;;;;14.62;67.20;100104.27;1753860;81;25579;-64
2022/06/01 01:03:11;;;;;;;8.70;5.42;;;;;;;14.57;67.72;100122.95;1755830;81;25465;-65
2022/06/01 01:05:42;;;;;;;8.43;5.55;;;;;;;14.51;68.79;100109.36;1755907;81;25582;-65
2022/06/01 01:08:09;;;;;;;7.03;5.78;;;;;;;14.43;69.58;100098.80;1755849;81;25705;-65
2022/06/01 01:10:36;;;;;;;8.08;5.53;;;;;;;14.38;69.98;100117.48;1755890;81;27452;-65
2022/06/01 01:13:06;;;;;;;6.60;5.45;;;;;;;14.33;70.13;100131.31;1755718;81;25607;-65
2022/06/01 01:15:55;;;;;;;6.85;6.17;;;;;;;14.28;70.31;100132.89;1706568;84;25402;-65
2022/06/01 01:18:31;;;;;;;6.12;5.55;;;;;;;14.25;70.84;100159.44;1755881;81;26419;-64
2022/06/01 01:21:22;;;;;;;6.58;5.90;;;;;;;14.19;71.41;100173.80;1755922;81;25477;-65
2022/06/01 01:24:32;;;;;;;6.97;6.28;;;;;;;14.11;71.41;100174.67;1755949;81;27494;-64
2022/06/01 01:26:58;;;;;;;6.37;5.67;;;;;;;14.04;71.75;100160.05;1755792;81;25672;-65
2022/06/01 01:29:40;;;;;;;7.00;6.08;;;;;;;13.99;72.27;100156.97;1755962;81;25396;-64
2022/06/01 01:32:11;;;;;;;6.60;6.00;;;;;;;13.96;72.32;100127.72;1694586;84;25735;-64
2022/06/01 01:34:40;;;;;;;6.47;5.80;;;;;;;13.94;72.84;100128.05;1694736;84;25508;-65
2022/06/01 01:37:11;;;;;;;7.60;6.40;;;;;;;13.93;73.32;100118.90;1666081;86;27420;-64
2022/06/01 01:39:38;;;;;;;6.87;6.17;;;;;;;13.90;73.51;100119.56;1649152;87;25862;-65
2022/06/01 01:42:06;;;;;;;6.87;6.25;;;;;;;13.88;73.50;100106.30;1649365;87;25530;-66
2022/06/01 01:44:59;;;;;;;6.53;5.97;;;;;;;13.87;73.96;100099.84;1649281;87;26432;-64
2022/06/01 01:47:26;;;;;;;6.70;6.05;;;;;;;13.87;73.55;100093.04;1649147;87;25638;-65
2022/06/01 01:49:53;;;;;;;8.83;6.08;;;;;;;13.87;73.72;100091.11;1649278;87;27709;-65
2022/06/01 01:52:19;;;;;;;9.03;6.92;;;;;;;13.85;74.08;100092.02;1649158;87;25668;-64
2022/06/01 01:55:13;;;;;;;7.15;6.45;;;;;;;13.82;74.31;100089.96;1649204;87;25510;-65
2022/06/01 01:57:57;;;;;;;8.85;6.45;;;;;;;13.77;74.45;100086.91;1644112;85;25840;-66
2022/06/01 02:00:31;;;;;;;7.58;6.40;;;;;;;13.74;75.03;100102.52;1644037;87;25490;-65
2022/06/01 02:03:15;;;;;;;7.53;6.67;;;;;;;13.68;74.99;100094.34;1666153;84;31127;-66
2022/06/01 02:06:14;;;;;;;11.97;7.53;;;;;;;13.62;75.48;100093.77;1701369;84;25468;-65
2022/06/01 02:08:55;;;;;;;9.35;6.97;;;;;;;13.59;75.86;100091.70;1701567;84;25707;-64
2022/06/01 02:14:40;;;;;;;8.43;7.47;;;;;;;13.53;76.64;100089.52;1701357;84;25630;-65
2022/06/01 02:17:12;;;;;;;8.38;7.37;;;;;;;13.52;77.18;100083.30;1701310;84;27560;-65
2022/06/01 02:19:47;;;;;;;10.10;8.98;;;;;;;13.48;77.51;100076.93;1700978;84;25998;-66
2022/06/01 02:22:15;;;;;;;9.30;8.30;;;;;;;13.48;77.71;100066.64;1701414;84;25385;-65
2022/06/01 02:24:43;;;;;;;10.18;8.65;;;;;;;13.43;77.79;100071.70;1701248;84;25551;-64
2022/06/01 02:27:12;;;;;;;9.43;8.18;;;;;;;13.40;77.79;100078.61;1701276;84;25568;-65
2022/06/01 02:30:13;;;;;;;8.13;7.33;;;;;;;13.38;77.84;100074.63;1701429;84;28356;-65
2022/06/01 02:32:42;;;;;;;9.70;7.62;;;;;;;13.36;77.50;100074.95;1701231;84;25636;-64
2022/06/01 02:35:12;;;;;;;11.12;8.13;;;;;;;13.33;77.41;100071.57;1701292;84;25396;-66
2022/06/01 02:37:42;;;;;;;10.48;7.97;;;;;;;13.34;77.87;100069.64;1701235;84;25622;-65
2022/06/01 02:40:13;;;;;;;9.65;8.65;;;;;;;13.33;77.71;100068.04;1701343;84;25773;-65
2022/06/01 02:42:51;;;;;;;9.13;8.00;;;;;;;13.34;78.10;100069.64;1701308;84;28126;-65
2022/06/01 02:45:25;;;;;;;8.30;7.43;;;;;;;13.32;78.16;100057.75;1701506;84;25481;-66
2022/06/01 02:47:55;;;;;;;7.50;6.72;;;;;;;13.31;78.38;100049.33;1701318;84;25703;-66
2022/06/01 02:50:24;;;;;;;;;;;;;;;13.31;78.32;100051.25;1703866;84;25602;-66
2022/06/01 02:52:50;;;;;;;45.65;42.67;;;;;;;13.32;78.64;100051.53;1701423;84;25565;-65
2022/06/01 02:55:21;;;;;;;8.20;7.47;;;;;;;13.29;78.70;100048.08;1701246;84;27556;-65
2022/06/01 02:57:50;;;;;;;8.48;7.67;;;;;;;13.27;78.32;100049.77;1698052;84;26021;-65
2022/06/01 03:00:23;;;;;;;9.03;7.65;;;;;;;13.27;78.19;100039.69;1697439;84;25385;-65
2022/06/01 03:02:57;;;;;;;9.73;8.10;;;;;;;13.25;79.09;100036.52;1697317;84;25569;-65
2022/06/01 03:05:28;;;;;;;10.50;8.20;;;;;;;13.24;79.55;100045.00;1697301;84;25412;-65
2022/06/01 03:07:55;;;;;;;10.65;8.90;;;;;;;13.24;79.35;100038.99;1697335;84;27464;-65
2022/06/01 03:10:23;;;;;;;8.95;8.05;;;;;;;13.24;79.34;100037.64;1697235;84;25388;-65
2022/06/01 03:12:52;;;;;;;9.40;8.13;;;;;;;13.24;79.48;100028.70;1697324;84;25465;-65
2022/06/01 03:15:22;;;;;;;73.25;68.40;;;;;;;13.24;79.50;100032.20;1697369;83;25615;-65
2022/06/01 03:17:49;;;;;;;78.10;72.50;;;;;;;13.26;79.56;100030.52;1697363;83;25400;-65
2022/06/01 03:20:19;;;;;;;77.62;72.55;;;;;;;13.22;79.53;100021.46;1697285;84;28195;-65
2022/06/01 03:22:46;;;;;;;75.75;70.97;;;;;;;13.22;79.89;100021.46;1682765;85;25673;-65
2022/06/01 03:25:17;;;;;;;77.70;72.55;;;;;;;13.23;79.55;100019.77;1682723;85;25394;-65
2022/06/01 03:27:43;;;;;;;9.05;8.08;;;;;;;13.31;79.98;100030.88;1729742;82;26337;-65
2022/06/01 03:30:15;;;;;;;9.10;8.15;;;;;;;13.30;79.72;100026.56;1729842;82;25458;-65
2022/06/01 03:32:46;;;;;;;9.05;8.13;;;;;;;13.32;80.22;100024.37;1729781;83;27555;-65
2022/06/01 03:35:17;;;;;;;10.10;9.10;;;;;;;13.32;80.40;100025.72;1729621;83;26065;-65
2022/06/01 03:37:43;;;;;;;8.93;8.03;;;;;;;13.32;80.51;100021.65;1729776;83;25638;-65
2022/06/01 03:40:12;;;;;;;8.08;7.28;;;;;;;13.32;80.60;100024.37;1729714;82;26135;-65
2022/06/01 03:42:38;;;;;;;11.35;8.90;;;;;;;13.30;80.54;100017.06;1729781;82;25613;-65
2022/06/01 03:47:51;;;;;;;9.68;7.75;;;;;;;13.33;80.83;100013.71;1667501;86;25624;-66
2022/06/01 03:50:18;;;;;;;78.22;72.80;;;;;;;13.33;80.81;100013.17;1682742;85;26152;-66
2022/06/01 03:52:45;;;;;;;78.50;73.25;;;;;;;13.30;81.04;100008.37;1729735;82;25583;-66
2022/06/01 03:55:14;;;;;;;75.95;70.95;;;;;;;13.31;81.20;100006.44;1729738;83;25486;-66
2022/06/01 03:57:42;;;;;;;76.15;71.28;;;;;;;13.34;81.33;100006.59;1695995;83;28283;-65
2022/06/01 04:00:17;;;;;;;76.62;71.60;;;;;;;13.38;81.66;99998.02;1758617;81;25434;-64
2022/06/01 04:02:43;;;;;;;75.50;70.67;;;;;;;13.41;81.50;100003.33;1758841;81;25571;-64
2022/06/01 04:05:10;;;;;;;73.30;68.60;;;;;;;13.43;81.54;100004.59;1758854;81;26132;-64
2022/06/01 04:07:37;;;;;;;73.60;68.83;;;;;;;13.46;81.79;100003.13;1758976;81;25548;-64
2022/06/01 04:10:05;;;;;;;72.42;67.60;;;;;;;13.47;81.78;100003.91;1758884;81;29672;-64
2022/06/01 04:12:31;;;;;;;72.23;67.27;;;;;;;13.50;82.04;100012.75;1758963;81;25689;-64
2022/06/01 04:14:58;;;;;;;72.62;67.40;;;;;;;13.49;82.12;100017.40;1758584;81;25460;-64
2022/06/01 04:17:24;;;;;;;73.93;69.13;;;;;;;13.54;82.25;100025.91;1758595;81;29025;-65
2022/06/01 04:19:50;;;;;;;72.80;68.02;;;;;;;13.56;82.23;100027.16;1758682;81;25560;-65
2022/06/01 04:22:16;;;;;;;73.83;69.03;;;;;;;13.59;82.25;100025.12;1758578;81;28233;-65
2022/06/01 04:24:42;;;;;;;75.87;70.92;;;;;;;13.59;82.64;100016.19;1758439;81;25382;-65
2022/06/01 04:27:09;;;;;;;75.90;71.00;;;;;;;13.65;82.72;100022.98;1758511;81;35063;-65
2022/06/01 04:29:35;;;;;;;73.30;68.50;;;;;;;13.70;82.89;100017.91;1758674;81;25534;-66
2022/06/01 04:32:06;;;;;;;73.40;68.52;;;;;;;13.72;83.25;100008.84;1758662;81;25566;-65
2022/06/01 04:34:32;;;;;;;73.57;68.55;;;;;;;13.54;83.37;99971.00;1761846;81;26989;-65
2022/06/01 04:36:58;;;;;;;58.35;54.15;;;;;;;13.43;83.46;99943.47;1758512;81;25748;-66
2022/06/01 04:39:24;;;;;;;72.50;67.63;;;;;;;13.87;83.59;100010.13;1758608;81;34836;-66
2022/06/01 04:41:51;;;;;;;76.02;70.95;;;;;;;13.88;83.76;100000.27;1758418;81;25598;-66
2022/06/01 04:44:19;;;;;;;77.20;71.87;;;;;;;13.92;83.77;100000.39;1758633;81;25636;-65
2022/06/01 04:46:46;;;;;;;76.25;70.75;;;;;;;13.95;83.76;100000.50;1758550;81;28243;-65
2022/06/01 04:49:14;;;;;;;76.50;71.17;;;;;;;13.98;83.91;99986.23;1758511;81;27363;-65
2022/06/01 04:51:40;;;;;;;73.85;68.83;;;;;;;14.03;83.88;99983.86;1758566;81;25615;-66
2022/06/01 04:54:07;;;;;;;77.62;72.40;;;;;;;14.04;83.79;99981.35;1758540;81;26155;-66
2022/06/01 04:56:34;;;;;;;79.50;74.35;;;;;;;14.08;83.70;99982.28;1706553;84;25490;-65
2022/06/01 04:59:01;;;;;;;75.45;70.28;;;;;;;14.11;83.55;99987.02;1758533;81;27515;-65
2022/06/01 05:01:28;;;;;;;73.12;68.37;;;;;;;14.13;83.49;99988.03;1758534;81;25465;-64
2022/06/01 05:03:54;;;;;;;74.58;69.50;;;;;;;14.16;83.52;99998.24;1758513;81;25405;-64
2022/06/01 05:06:20;;;;;;;74.22;68.90;;;;;;;14.17;83.36;100010.14;1758600;81;25510;-65
2022/06/01 05:08:46;;;;;;;49.60;45.83;;;;;;;14.15;83.33;100004.26;1758739;81;25404;-64
2022/06/01 05:11:12;;;;;;;12.18;10.68;;;;;;;14.17;83.29;100012.86;1758496;81;27576;-65
2022/06/01 05:13:38;;;;;;;12.43;11.12;;;;;;;14.19;83.70;100017.39;1758498;81;32847;-66
2022/06/01 05:16:07;;;;;;;15.72;12.50;;;;;;;14.19;83.89;100010.59;1758557;81;25447;-65
2022/06/01 05:18:33;;;;;;;12.85;11.53;;;;;;;14.19;83.65;100013.31;1758545;81;25578;-65
2022/06/01 05:20:59;;;;;;;12.50;11.20;;;;;;;14.19;83.90;100012.52;1758303;81;25472;-65
2022/06/01 05:23:26;;;;;;;13.18;11.85;;;;;;;14.20;83.82;100012.77;1758586;81;27515;-65
2022/06/01 05:25:54;;;;;;;16.65;12.70;;;;;;;14.18;83.76;100013.10;1758519;81;25531;-66
2022/06/01 05:28:25;;;;;;;16.40;13.73;;;;;;;14.20;84.09;100007.33;1758745;81;25644;-66
2022/06/01 05:30:57;;;;;;;17.67;13.62;;;;;;;14.25;84.51;100008.45;1758584;81;26130;-66
2022/06/01 05:33:24;;;;;;;16.27;14.25;;;;;;;14.26;84.10;100005.95;1754789;81;25459;-65
2022/06/01 05:35:52;;;;;;;14.58;13.08;;;;;;;14.30;84.67;100007.41;1757426;81;28046;-66
2022/06/01 05:38:18;;;;;;;15.78;14.20;;;;;;;14.30;84.48;100006.87;1758229;81;25374;-66
2022/06/01 05:40:46;;;;;;;15.93;14.35;;;;;;;14.34;84.59;100013.78;1758447;81;25588;-66
2022/06/01 05:43:17;;;;;;;16.00;13.38;;;;;;;14.36;84.78;100020.45;1758609;81;25629;-66
2022/06/01 05:45:44;;;;;;;17.15;14.68;;;;;;;14.39;84.59;100027.94;1758641;81;25373;-64
2022/06/01 05:48:14;;;;;;;15.95;14.33;;;;;;;14.42;84.67;100027.02;1757438;81;27548;-65
2022/06/01 05:50:42;;;;;;;16.20;14.47;;;;;;;14.44;84.59;100028.83;1757835;81;25627;-65
2022/06/01 05:53:09;;;;;;;17.35;15.65;;;;;;;14.41;84.50;100027.59;1758265;81;25786;-65
2022/06/01 05:55:37;;;;;;;18.50;15.90;;;;;;;14.40;84.42;100019.20;1757813;81;25569;-65
2022/06/01 05:58:20;;;;;;;17.35;15.43;;;;;;;14.41;84.65;100022.16;1758979;81;26245;-66
2022/06/01 06:00:49;;;;;;;18.80;15.93;;;;;;;14.44;84.65;100022.02;1760021;81;28115;-65
2022/06/01 06:03:18;;;;;;;17.62;15.75;;;;;;;14.49;85.01;100025.33;1759793;81;25412;-68
2022/06/01 06:08:31;;;;;;;18.65;16.55;;;;;;;14.62;85.45;100033.50;1760135;81;25607;-65
2022/06/01 06:10:58;;;;;;;18.45;16.45;;;;;;;14.70;85.64;100028.51;1759920;81;25695;-66
2022/06/01 06:13:24;;;;;;;19.07;17.07;;;;;;;14.77;86.05;100017.83;1760175;81;27421;-66
2022/06/01 06:15:50;;;;;;;19.62;16.90;;;;;;;14.84;85.54;100028.14;1760069;81;32834;-66
2022/06/01 06:18:16;;;;;;;18.80;16.67;;;;;;;14.90;85.65;100027.55;1759911;81;25520;-66
2022/06/01 06:20:45;;;;;;;18.50;16.32;;;;;;;14.94;85.38;100022.99;1734313;81;25312;-66
2022/06/01 06:23:13;;;;;;;19.32;17.35;;;;;;;14.93;84.87;100022.78;1760048;81;25701;-66
2022/06/01 06:25:40;;;;;;;18.07;16.10;;;;;;;14.97;85.07;100029.70;1759912;81;26854;-67
2022/06/01 06:28:06;;;;;;;18.52;16.52;;;;;;;14.99;84.91;100034.80;1760010;81;25639;-67
2022/06/01 06:30:33;;;;;;;19.70;16.55;;;;;;;15.01;84.88;100037.97;1760049;80;25388;-65
2022/06/01 06:32:59;;;;;;;20.17;17.87;;;;;;;15.00;84.85;100034.45;1734097;81;25639;-66
2022/06/01 06:35:26;;;;;;;20.72;17.98;;;;;;;15.03;84.84;100022.06;1760217;81;25616;-67
2022/06/01 06:37:52;;;;;;;19.52;17.52;;;;;;;15.06;85.01;100018.66;1760070;81;27440;-67
2022/06/01 06:40:19;;;;;;;21.95;18.15;;;;;;;15.09;85.09;100040.55;1759817;81;26098;-66
2022/06/01 06:42:45;;;;;;;19.32;17.30;;;;;;;15.09;85.27;100058.83;1760086;81;25554;-66
2022/06/01 06:45:11;;;;;;;21.05;17.70;;;;;;;15.06;85.37;100063.02;1760201;81;25464;-67
2022/06/01 06:47:38;;;;;;;23.02;17.75;;;;;;;15.02;85.22;100061.35;1759946;81;25637;-66
2022/06/01 06:50:09;;;;;;;21.23;17.42;;;;;;;14.99;85.28;100056.59;1760297;81;27370;-66
2022/06/01 06:52:35;;;;;;;25.65;18.98;;;;;;;14.95;85.30;100057.84;1760216;81;25645;-66
2022/06/01 06:55:02;;;;;;;21.93;17.57;;;;;;;14.96;85.80;100059.99;1760125;81;27947;-66
2022/06/01 06:57:28;;;;;;;20.48;16.87;;;;;;;14.94;85.65;100068.50;1760175;81;26121;-66
2022/06/01 06:59:54;;;;;;;25.10;17.27;;;;;;;14.92;85.67;100068.84;1760268;81;25724;-66
2022/06/01 07:02:21;;;;;;;20.82;16.82;;;;;;;14.93;85.67;100065.00;1760106;81;27337;-66
2022/06/01 07:04:47;;;;;;;20.72;16.37;;;;;;;14.94;85.95;100064.42;1760245;81;25682;-66
2022/06/01 07:07:15;;;;;;;23.45;18.52;;;;;;;14.92;85.60;100051.14;1760310;81;25465;-67
2022/06/01 07:09:42;;;;;;;20.60;17.87;;;;;;;14.92;85.68;100049.00;1759877;81;25753;-67
2022/06/01 07:12:10;;;;;;;21.25;18.02;;;;;;;14.94;86.02;100042.05;1760341;81;25633;-68
2022/06/01 07:14:37;;;;;;;24.67;19.20;;;;;;;14.99;86.43;100024.69;1760210;81;27937;-67
2022/06/01 07:17:05;;;;;;;21.10;17.65;;;;;;;15.05;86.58;100015.70;1759967;81;25720;-66
2022/06/01 07:19:31;;;;;;;19.55;17.50;;;;;;;15.10;86.64;100034.52;1760204;81;25621;-66
2022/06/01 07:21:58;;;;;;;21.95;18.73;;;;;;;15.12;86.16;100062.23;1760182;81;27465;-67
2022/06/01 07:24:24;;;;;;;19.70;17.50;;;;;;;15.14;86.21;100077.66;1759997;81;25364;-67
2022/06/01 07:26:50;;;;;;;20.02;16.85;;;;;;;15.09;86.00;100088.22;1760286;81;28123;-66
2022/06/01 07:29:18;;;;;;;20.50;17.73;;;;;;;15.10;86.33;100093.90;1760139;81;25774;-66
2022/06/01 07:31:50;;;;;;;19.55;17.45;;;;;;;15.07;86.32;100100.03;1760087;81;25392;-67
2022/06/01 07:34:17;;;;;;;21.02;17.73;;;;;;;15.05;86.24;100081.06;1760312;81;25610;-65
2022/06/01 07:36:45;;;;;;;19.37;17.42;;;;;;;15.03;86.13;100084.13;1760250;81;25584;-66
2022/06/01 07:44:49;;;;;;;20.48;17.32;;;;;;;15.09;86.33;100069.14;1760370;81;25732;-67
2022/06/01 07:47:17;;;;;;;19.30;17.17;;;;;;;15.14;86.67;100065.39;1759986;81;27414;-67
2022/06/01 07:49:44;;;;;;;19.10;17.07;;;;;;;15.19;86.81;100068.42;1760205;81;25619;-65
2022/06/01 07:52:13;;;;;;;19.87;17.77;;;;;;;15.22;86.97;100067.19;1760341;81;27434;-67
2022/06/01 07:54:43;;;;;;;18.57;16.67;;;;;;;15.29;87.33;100079.66;1760260;81;32852;-66
2022/06/01 07:57:11;;;;;;;18.40;15.43;;;;;;;15.34;87.21;100071.81;1760145;80;25621;-66
2022/06/01 07:59:38;;;;;;;19.00;16.60;;;;;;;15.39;87.14;100070.75;1760060;81;25763;-66
2022/06/01 08:02:26;;;;;;;17.20;15.20;;;;;;;15.43;87.13;100054.73;1760013;81;25404;-67
2022/06/01 08:04:52;;;;;;;18.05;16.05;;;;;;;15.49;86.97;100064.25;1698012;84;29697;-66
2022/06/01 08:07:18;;;;;;;16.07;14.38;;;;;;;15.57;86.75;100072.04;1652021;86;32863;-66
2022/06/01 08:09:44;;;;;;;16.05;14.30;;;;;;;15.59;86.22;100064.30;1651804;86;26347;-67
2022/06/01 08:14:55;;;;;;;16.65;14.75;;;;;;;15.64;86.08;100067.35;1652174;86;25910;-66
2022/06/01 08:17:21;;;;;;;16.60;14.65;;;;;;;15.66;86.13;100049.52;1651877;86;27720;-66
2022/06/01 08:19:48;;;;;;;25.30;15.03;;;;;;;15.75;86.63;100043.93;1651820;86;25675;-66
2022/06/01 08:22:15;;;;;;;16.27;14.58;;;;;;;15.83;86.61;100062.62;1651871;86;25884;-67
2022/06/01 08:24:41;;;;;;;17.17;14.55;;;;;;;15.89;86.28;100058.50;1651534;86;26040;-66
2022/06/01 08:27:08;;;;;;;22.00;18.98;;;;;;;15.89;85.93;100059.86;1651787;86;25671;-66
2022/06/01 08:29:36;;;;;;;19.90;16.93;;;;;;;15.95;86.14;100053.57;1651779;86;27527;-67
2022/06/01 08:32:02;;;;;;;16.05;14.43;;;;;;;16.01;86.18;100056.27;1651583;86;25756;-63
2022/06/01 08:34:29;;;;;;;16.65;15.03;;;;;;;16.06;85.86;100048.61;1651834;86;25547;-64
2022/06/01 08:36:55;;;;;;;16.52;14.87;;;;;;;16.14;86.10;100023.67;1651682;86;25664;-63
2022/06/01 08:39:21;;;;;;;15.58;13.88;;;;;;;16.23;86.28;100034.39;1651699;86;25731;-63
2022/06/01 08:41:48;;;;;;;17.02;15.30;;;;;;;16.32;86.36;100023.30;1681956;83;27409;-63
2022/06/01 08:44:29;;;;;;;17.30;15.43;;;;;;;16.42;86.54;100028.98;1727332;83;25639;-65
2022/06/01 08:47:00;;;;;;;16.62;14.93;;;;;;;16.58;86.51;100032.27;1682646;84;25721;-64
2022/06/01 08:49:30;;;;;;;16.52;14.75;;;;;;;16.74;86.18;100034.39;1727246;83;25733;-64
2022/06/01 08:51:57;;;;;;;15.45;13.32;;;;;;;16.93;85.81;100044.58;1727417;83;25650;-66
2022/06/01 08:54:24;;;;;;;15.88;13.50;;;;;;;17.13;85.86;100045.39;1727219;83;27391;-68
2022/06/01 08:57:02;;;;;;;14.90;13.28;;;;;;;17.33;85.65;100040.72;1727257;83;25743;-66
2022/06/01 08:59:52;;;;;;;15.78;10.88;;;;;;;17.54;85.17;100044.42;1726443;83;26205;-67
2022/06/01 09:02:46;;;;;;;10.60;8.93;;;;;;;17.79;84.19;100062.45;1727042;83;25974;-67
2022/06/01 09:05:39;;;;;;;10.18;8.98;;;;;;;17.89;82.00;100053.67;1724969;83;25604;-67
2022/06/01 09:08:17;;;;;;;10.38;8.50;;;;;;;18.00;81.05;100049.77;1724228;83;28092;-67
2022/06/01 09:11:05;;;;;;;9.33;8.43;;;;;;;17.94;80.59;100053.36;1725082;83;25602;-67
2022/06/01 09:14:06;;;;;;;10.63;8.10;;;;;;;17.96;80.42;100057.11;1725248;83;25618;-67
2022/06/01 09:16:40;;;;;;;8.58;7.78;;;;;;;17.96;79.68;100062.58;1724779;83;25926;-67
2022/06/01 09:22:39;;;;;;;8.30;7.50;;;;;;;17.81;78.52;100051.37;1712428;82;27580;-67
2022/06/01 09:25:13;;;;;;;9.73;8.00;;;;;;;17.86;79.04;100047.52;1727257;83;26002;-67
2022/06/01 09:27:51;;;;;;;8.08;7.20;;;;;;;17.86;79.46;100051.09;1712533;82;25637;-67
2022/06/01 09:30:26;;;;;;;13.53;6.63;;;;;;;18.00;79.54;100055.23;1712418;83;25409;-65
2022/06/01 09:33:28;;;;;;;8.25;7.45;;;;;;;18.04;78.93;100061.55;1761037;81;25751;-63
2022/06/01 09:36:12;;;;;;;6.67;5.90;;;;;;;18.10;79.12;100064.20;1761061;81;27313;-65
2022/06/01 09:38:58;;;;;;;9.40;6.30;;;;;;;18.16;78.25;100057.25;1760766;81;25735;-65
2022/06/01 09:41:40;;;;;;;10.60;6.20;;;;;;;18.19;77.91;100053.01;1760942;81;25710;-63
2022/06/01 09:44:10;;;;;;;8.43;6.55;;;;;;;18.25;77.68;100049.59;1760922;81;25659;-63
2022/06/01 09:46:42;;;;;;;9.63;5.58;;;;;;;18.43;78.02;100050.45;1761055;81;25696;-63
2022/06/01 09:49:25;;;;;;;5.58;4.67;;;;;;;18.45;76.23;100054.37;1759866;81;27314;-60
2022/06/01 09:51:56;;;;;;;7.55;5.62;;;;;;;18.40;75.33;100052.55;1761173;81;25378;-66
2022/06/01 09:54:28;;;;;;;5.58;4.78;;;;;;;18.45;75.71;100060.45;1761116;81;25438;-65
2022/06/01 09:56:55;;;;;;;5.17;4.30;;;;;;;18.41;74.05;100071.34;1761133;81;26049;-66
2022/06/01 10:08:10;;;;;;;5.83;5.12;;;;;;;18.02;73.85;100069.34;1762847;81;25577;-67
2022/06/01 10:10:38;;;;;;;4.97;4.50;;;;;;;17.99;73.61;100064.00;1763020;81;25702;-68
2022/06/01 10:13:06;;;;;;;5.20;4.70;;;;;;;17.96;73.19;100073.52;1763024;81;25405;-69
2022/06/01 10:15:46;;;;;;;5.90;4.83;;;;;;;17.95;73.06;100071.95;1763054;80;28134;-69
2022/06/01 10:18:24;;;;;;;5.17;4.65;;;;;;;18.03;73.40;100079.92;1762901;81;25659;-68
2022/06/01 10:20:58;;;;;;;6.50;4.97;;;;;;;18.13;73.06;100089.45;1763308;81;25678;-68
2022/06/01 10:23:47;;;;;;;8.55;5.33;;;;;;;18.16;71.88;100078.37;1762995;81;26280;-67
2022/06/01 10:26:27;;;;;;;5.25;4.65;;;;;;;18.25;72.16;100092.03;1763444;81;26351;-68
2022/06/01 10:29:05;;;;;;;5.22;4.70;;;;;;;18.38;72.28;100078.14;1760067;81;27404;-68
2022/06/01 10:31:54;;;;;;;5.08;4.58;;;;;;;18.57;72.67;100077.25;1763592;80;25700;-68
2022/06/01 10:34:43;;;;;;;6.00;4.95;;;;;;;18.93;71.45;100084.05;1763487;81;25581;-68
2022/06/01 10:37:17;;;;;;;;;;;;;;;19.03;69.61;100094.41;1732961;81;27453;-69
2022/06/01 10:39:54;;;;;;;6.42;4.97;;;;;;;19.25;70.41;100071.94;1763034;81;25714;-68
2022/06/01 10:43:16;;;;;;;6.53;4.42;;;;;;;19.53;68.87;100068.73;1763410;81;27399;-70
2022/06/01 10:45:12;;;;;;;7.33;5.05;;;;;;;19.47;67.09;100060.05;1761858;81;25412;-69
2022/06/01 10:48:12;;;;;;;6.60;4.55;;;;;;;19.39;68.18;100064.69;1762846;81;25574;-68
2022/06/01 10:50:49;;;;;;;5.47;4.17;;;;;;;19.83;69.93;100063.78;1763287;81;26010;-69
2022/06/01 10:53:37;;;;;;;6.33;4.10;;;;;;;20.10;68.01;100063.83;1763140;81;26181;-69
2022/06/01 10:56:03;;;;;;;4.83;4.05;;;;;;;20.18;65.84;100067.44;1762796;81;29495;-68
2022/06/01 10:58:31;;;;;;;3.47;3.17;;;;;;;20.11;65.92;100071.50;1763218;81;25770;-68
2022/06/01 11:01:03;;;;;;;3.87;3.50;;;;;;;20.00;65.56;100067.87;1763054;80;25716;-70
2022/06/01 11:03:50;;;;;;;3.95;3.62;;;;;;;20.00;65.74;100071.39;1756685;81;26238;-68
2022/06/01 11:06:44;;;;;;;3.37;3.17;;;;;;;20.17;65.16;100065.08;1729769;81;26132;-68
2022/06/01 11:09:42;;;;;;;3.60;2.70;;;;;;;20.49;66.41;100061.20;1729950;82;27380;-68
2022/06/01 11:12:24;;;;;;;5.05;3.60;;;;;;;20.90;63.38;100063.83;1729516;82;25833;-67
2022/06/01 11:15:08;;;;;;;4.37;3.30;;;;;;;21.03;63.06;100061.55;1729250;82;25624;-67
2022/06/01 11:18:01;;;;;;;6.08;3.40;;;;;;;21.38;62.27;100072.48;1729938;82;25994;-66
2022/06/01 11:21:02;;;;;;;5.62;3.15;;;;;;;21.55;61.18;100082.77;1730017;82;25717;-68
2022/06/01 11:24:04;;;;;;;2.30;2.10;;;;;;;21.77;60.70;100062.97;1705584;84;29492;-68
2022/06/01 11:27:05;;;;;;;2.62;2.42;;;;;;;21.82;59.36;100064.55;1720854;83;25467;-67
2022/06/01 11:29:45;;;;;;;2.80;2.50;;;;;;;21.74;57.68;100069.28;1691888;84;25510;-66
2022/06/01 11:32:17;;;;;;;2.70;2.50;;;;;;;21.73;60.13;100058.06;1709530;82;25705;-67
2022/06/01 11:34:58;;;;;;;4.12;2.80;;;;;;;21.99;59.27;100045.88;1737570;82;26019;-70
2022/06/01 11:37:54;;;;;;;2.20;2.00;;;;;;;22.17;59.33;100051.41;1710523;82;27461;-69
2022/06/01 11:40:47;;;;;;;3.10;1.90;;;;;;;22.54;57.12;100043.91;1725600;82;25741;-69
2022/06/01 11:43:26;;;;;;;2.00;1.90;;;;;;;22.78;56.05;100049.16;1680597;85;25811;-67
2022/06/01 11:46:13;;;;;;;6.37;2.60;;;;;;;22.98;55.68;100034.34;1702392;83;25764;-69
2022/06/01 11:48:47;;;;;;;3.52;2.37;;;;;;;23.33;55.79;100029.89;1760151;81;25775;-69
2022/06/01 11:51:19;;;;;;;2.90;2.67;;;;;;;23.58;55.50;100037.22;1759839;81;27325;-66
2022/06/01 11:54:04;;;;;;;2.40;2.20;;;;;;;23.74;53.95;100031.22;1735464;81;25831;-67
2022/06/01 11:56:36;;;;;;;3.62;2.50;;;;;;;23.69;53.54;100036.56;1760523;81;25578;-67
2022/06/01 11:59:29;;;;;;;2.22;1.75;;;;;;;23.64;53.06;100021.20;1750329;81;25507;-68
2022/06/01 12:02:40;;;;;;;1.95;1.80;;;;;;;23.79;53.31;100021.13;1733505;82;25615;-67
2022/06/01 12:05:08;;;;;;;1.82;1.62;;;;;;;24.07;53.23;100012.44;1728811;81;27363;-67
2022/06/01 12:07:51;;;;;;;2.05;1.92;;;;;;;24.05;51.75;100012.84;1732904;82;26449;-63
2022/06/01 12:10:28;;;;;;;3.55;1.70;;;;;;;23.80;50.02;100005.53;1686386;84;25578;-61